Time;durP1;ratioP1;P1;durP2;ratioP2;P2;SDS_P1;SDS_P2;PMS_P1;PMS_P2;Temp;Humidity;BMP_temperature;BMP_pressure;BME280_temperature;BME280_humidity;BME280_pressure;Samples;Min_cycle;Max_cycle;Signal;HPM_P1;HPM_P2
2022/01/24 00:01:30;;;;;;;13.63;8.40;;;-0.80;82.40;;;;;;5054185;28;20220;-67
2022/01/24 00:03:58;;;;;;;15.43;8.50;;;-0.90;82.80;;;;;;5053465;28;20662;-67
2022/01/24 00:06:27;;;;;;;12.63;7.77;;;-0.80;83.10;;;;;;5054495;28;20291;-69
2022/01/24 00:08:54;;;;;;;14.83;7.37;;;-0.80;83.20;;;;;;5054251;28;20569;-67
2022/01/24 00:11:25;;;;;;;14.37;8.13;;;-0.80;83.40;;;;;;5054672;28;20241;-68
2022/01/24 00:16:57;;;;;;;11.77;7.43;;;-0.80;83.20;;;;;;5054589;28;20228;-66
2022/01/24 00:27:36;;;;;;;15.40;7.53;;;-0.90;83.40;;;;;;5054187;28;20780;-67
2022/01/24 00:30:04;;;;;;;11.60;7.00;;;0.10;84.60;;;;;;5054590;28;20202;-66
2022/01/24 00:32:31;;;;;;;12.17;7.50;;;-0.80;83.90;;;;;;5053274;28;20205;-66
2022/01/24 00:34:57;;;;;;;12.93;6.83;;;-0.70;84.10;;;;;;5054260;28;20244;-67
2022/01/24 00:37:29;;;;;;;14.13;7.70;;;-0.80;83.80;;;;;;5052805;28;20240;-67
2022/01/24 00:39:58;;;;;;;15.00;8.20;;;-0.80;83.90;;;;;;5053914;28;20651;-67
2022/01/24 00:42:31;;;;;;;15.43;8.20;;;-0.70;84.10;;;;;;5054497;28;20726;-66
2022/01/24 00:45:07;;;;;;;14.53;7.67;;;-0.60;84.40;;;;;;5054554;28;20255;-66
2022/01/24 00:47:50;;;;;;;16.90;8.90;;;-0.60;84.10;;;;;;5054186;28;20740;-65
2022/01/24 00:53:17;;;;;;;16.43;8.80;;;-0.60;83.80;;;;;;5046445;28;20205;-67
2022/01/24 00:55:45;;;;;;;16.40;8.67;;;-0.60;83.80;;;;;;5054161;28;20194;-66
2022/01/24 00:58:12;;;;;;;17.20;8.83;;;-0.60;83.80;;;;;;5054054;28;20222;-66
2022/01/24 01:00:39;;;;;;;13.77;8.17;;;-1.90;82.50;;;;;;5054024;28;20228;-67
2022/01/24 01:03:06;;;;;;;18.60;10.17;;;-0.50;83.60;;;;;;5054018;28;20208;-66
2022/01/24 01:05:48;;;;;;;18.10;9.27;;;-0.50;83.40;;;;;;5053960;28;20205;-66
2022/01/24 01:19:15;;;;;;;18.53;9.23;;;-0.60;83.70;;;;;;5053086;28;20221;-67
2022/01/24 01:21:41;;;;;;;19.33;10.23;;;-0.60;83.70;;;;;;5053200;28;20212;-67
2022/01/24 01:24:10;;;;;;;17.40;8.97;;;-0.50;83.90;;;;;;5050370;28;20237;-67
2022/01/24 01:26:41;;;;;;;17.13;9.73;;;-0.60;83.90;;;;;;5052134;28;20292;-67
2022/01/24 01:29:13;;;;;;;17.70;9.23;;;-0.60;84.00;;;;;;5052304;28;20234;-67
2022/01/24 01:31:47;;;;;;;18.83;8.93;;;-0.70;83.90;;;;;;5052097;28;20656;-67
2022/01/24 01:34:30;;;;;;;21.33;9.40;;;-0.80;83.60;;;;;;5052032;28;20198;-66
2022/01/24 01:37:17;;;;;;;17.47;9.33;;;-0.80;83.80;;;;;;5045063;28;20232;-67
2022/01/24 01:54:09;;;;;;;14.67;8.60;;;-1.00;84.30;;;;;;4989478;28;20207;-67
2022/01/24 01:56:38;;;;;;;17.63;8.67;;;-1.00;84.40;;;;;;4990979;28;20250;-66
2022/01/24 01:59:05;;;;;;;16.93;9.07;;;-1.00;84.70;;;;;;5030152;28;20222;-67
2022/01/24 02:01:31;;;;;;;18.47;8.67;;;-1.10;84.60;;;;;;5051728;28;20206;-67
2022/01/24 02:04:02;;;;;;;15.73;8.93;;;-1.10;84.80;;;;;;5051776;28;20205;-66
2022/01/24 02:06:30;;;;;;;18.97;9.83;;;-1.10;84.80;;;;;;5051770;28;20233;-67
2022/01/24 02:09:05;;;;;;;17.63;9.33;;;-1.10;84.80;;;;;;5051414;28;20871;-67
2022/01/24 02:11:32;;;;;;;18.07;9.70;;;-1.10;84.80;;;;;;5051242;28;20213;-67
2022/01/24 02:14:04;;;;;;;16.73;8.90;;;-1.00;85.00;;;;;;5051650;28;20646;-67
2022/01/24 02:16:39;;;;;;;17.93;9.10;;;-1.10;85.20;;;;;;5040041;28;20661;-67
2022/01/24 02:19:19;;;;;;;15.60;8.77;;;-1.10;85.20;;;;;;5051236;28;20214;-67
2022/01/24 02:22:04;;;;;;;14.37;8.93;;;-1.10;85.10;;;;;;5052154;28;20202;-66
2022/01/24 02:24:40;;;;;;;14.77;9.00;;;-1.10;85.00;;;;;;5051585;28;20252;-66
2022/01/24 02:27:07;;;;;;;15.13;8.63;;;-1.10;84.90;;;;;;5051271;28;20247;-67
2022/01/24 02:29:47;;;;;;;16.33;9.03;;;-1.10;85.30;;;;;;5051464;28;20209;-67
2022/01/24 02:32:14;;;;;;;16.07;9.27;;;-1.10;85.50;;;;;;5051370;28;20524;-67
2022/01/24 02:34:45;;;;;;;18.20;8.83;;;-1.10;85.20;;;;;;5051636;28;20206;-66
2022/01/24 02:37:15;;;;;;;18.90;9.70;;;-1.10;85.20;;;;;;5044050;28;20206;-66
2022/01/24 02:39:53;;;;;;;18.23;10.27;;;-1.10;85.60;;;;;;5051209;28;20232;-67
2022/01/24 02:50:52;;;;;;;17.67;9.70;;;-1.00;86.40;;;;;;5051179;28;20730;-67
2022/01/24 02:53:21;;;;;;;20.53;10.20;;;-1.00;86.90;;;;;;5050767;28;20619;-67
2022/01/24 02:55:48;;;;;;;19.97;9.00;;;-0.90;86.00;;;;;;5051118;28;20301;-66
2022/01/24 02:58:16;;;;;;;15.57;9.20;;;-0.90;85.90;;;;;;5051059;28;20225;-67
2022/01/24 03:00:44;;;;;;;16.53;9.27;;;-0.90;85.70;;;;;;5051137;28;20264;-67
2022/01/24 03:03:11;;;;;;;15.53;9.47;;;-0.80;86.10;;;;;;5051505;28;20205;-66
2022/01/24 03:05:38;;;;;;;18.33;8.77;;;-0.80;85.10;;;;;;5050994;28;20816;-67
2022/01/24 03:08:06;;;;;;;19.07;9.50;;;-0.80;85.10;;;;;;5050988;28;20570;-66
2022/01/24 03:10:38;;;;;;;19.03;9.43;;;-0.80;85.10;;;;;;5050816;28;20205;-66
2022/01/24 03:13:21;;;;;;;16.47;9.37;;;-0.90;85.00;;;;;;5050891;28;20657;-67
2022/01/24 03:15:50;;;;;;;18.10;10.17;;;-0.90;85.00;;;;;;5050593;28;20201;-67
2022/01/24 03:18:18;;;;;;;22.17;10.97;;;-0.90;85.00;;;;;;5051138;28;20229;-68
2022/01/24 03:20:45;;;;;;;17.73;10.90;;;-0.90;85.00;;;;;;5050779;28;20229;-66
2022/01/24 03:23:13;;;;;;;21.23;10.97;;;-0.90;85.00;;;;;;5049767;28;20209;-67
2022/01/24 03:25:42;;;;;;;17.67;10.40;;;-0.90;85.00;;;;;;5050902;28;20214;-67
2022/01/24 03:28:09;;;;;;;20.53;11.80;;;-0.90;85.40;;;;;;5050922;28;20663;-67
2022/01/24 03:30:37;;;;;;;20.30;11.80;;;-0.90;85.70;;;;;;5052385;28;20214;-67
2022/01/24 03:33:05;;;;;;;19.60;11.97;;;-0.80;86.00;;;;;;5054187;28;20268;-67
2022/01/24 03:35:33;;;;;;;20.33;11.93;;;-0.80;86.20;;;;;;5050413;28;20210;-67
2022/01/24 03:38:00;;;;;;;21.63;12.13;;;-0.80;86.20;;;;;;5053935;28;20663;-67
2022/01/24 03:40:27;;;;;;;22.10;11.53;;;-0.70;86.30;;;;;;5054881;28;20232;-66
2022/01/24 03:42:55;;;;;;;17.50;10.30;;;-0.70;86.10;;;;;;5054647;28;20213;-66
2022/01/24 03:45:36;;;;;;;24.67;12.03;;;-0.70;85.50;;;;;;5054716;28;20210;-67
2022/01/24 03:48:07;;;;;;;24.70;12.20;;;-0.70;85.30;;;;;;5055250;28;20257;-67
2022/01/24 03:50:34;;;;;;;26.97;12.57;;;-0.70;85.20;;;;;;5049639;28;20228;-66
2022/01/24 03:53:01;;;;;;;19.50;10.50;;;-0.70;85.20;;;;;;5053982;28;20205;-67
2022/01/24 03:55:28;;;;;;;21.43;11.60;;;-0.70;85.20;;;;;;5054948;28;20232;-67
2022/01/24 03:57:56;;;;;;;20.37;12.40;;;-0.70;85.40;;;;;;5054666;28;20234;-67
2022/01/24 04:00:23;;;;;;;22.67;12.40;;;-0.70;85.50;;;;;;5055137;28;20275;-67
2022/01/24 04:02:50;;;;;;;25.70;12.90;;;-0.80;85.90;;;;;;5054772;28;20586;-67
2022/01/24 04:05:17;;;;;;;22.33;11.77;;;-0.80;85.90;;;;;;5054678;28;20206;-67
2022/01/24 04:07:44;;;;;;;21.67;12.27;;;-0.80;85.20;;;;;;5054043;28;20285;-67
2022/01/24 04:10:12;;;;;;;22.33;12.50;;;-0.80;85.80;;;;;;5053576;28;20198;-67
2022/01/24 04:12:41;;;;;;;22.20;11.87;;;-0.80;86.20;;;;;;5053050;28;20230;-66
2022/01/24 04:15:23;;;;;;;23.37;12.57;;;-0.80;86.30;;;;;;5054558;28;20313;-67
2022/01/24 04:17:58;;;;;;;23.13;12.00;;;-0.80;86.30;;;;;;5052219;28;20656;-67
2022/01/24 04:23:18;;;;;;;25.70;12.37;;;-0.80;86.50;;;;;;5053829;28;20217;-67
2022/01/24 04:25:44;;;;;;;23.77;12.30;;;-0.70;86.60;;;;;;5053999;28;20259;-66
2022/01/24 04:28:11;;;;;;;25.17;13.00;;;-0.70;86.90;;;;;;5053920;28;20208;-67
2022/01/24 04:30:39;;;;;;;20.80;12.63;;;-0.70;86.90;;;;;;5054111;28;20218;-67
2022/01/24 04:33:06;;;;;;;25.10;13.23;;;-0.70;87.10;;;;;;5053337;28;20236;-67
2022/01/24 04:35:33;;;;;;;22.43;12.23;;;-0.70;87.00;;;;;;5048238;28;20209;-67
2022/01/24 04:38:00;;;;;;;25.13;13.40;;;-0.50;87.40;;;;;;5050680;28;20594;-66
2022/01/24 04:40:28;;;;;;;25.47;13.03;;;-0.60;87.20;;;;;;5053271;28;20597;-66
2022/01/24 04:43:04;;;;;;;24.43;12.80;;;-0.60;87.10;;;;;;5051652;28;20206;-67
2022/01/24 04:45:49;;;;;;;25.40;11.87;;;-0.60;86.60;;;;;;5053829;28;20214;-66
2022/01/24 04:51:10;;;;;;;22.10;12.07;;;-0.70;86.70;;;;;;5043426;28;20193;-67
2022/01/24 04:54:14;;;;;;;19.00;11.33;;;-0.70;86.70;;;;;;5052143;28;20197;-66
2022/01/24 04:56:41;;;;;;;18.70;9.97;;;-0.70;86.80;;;;;;5053197;28;20283;-68
2022/01/24 04:59:09;;;;;;;22.17;11.27;;;-0.70;86.70;;;;;;5052403;28;20226;-67
2022/01/24 05:01:36;;;;;;;20.43;10.60;;;-0.70;86.60;;;;;;5053332;28;20241;-67
2022/01/24 05:04:05;;;;;;;20.63;10.73;;;-0.80;86.70;;;;;;5053408;28;20202;-67
2022/01/24 05:06:31;;;;;;;21.13;11.27;;;-0.80;87.00;;;;;;5052815;28;20202;-66
2022/01/24 05:08:58;;;;;;;19.67;10.43;;;-0.80;87.20;;;;;;5053080;28;20206;-67
2022/01/24 05:11:35;;;;;;;19.10;11.20;;;-0.80;87.30;;;;;;5053060;28;20209;-69
2022/01/24 05:24:56;;;;;;;20.80;10.97;;;-0.80;88.00;;;;;;5019433;28;20208;-67
2022/01/24 05:27:23;;;;;;;26.27;12.07;;;-0.80;88.00;;;;;;5052789;28;20584;-67
2022/01/24 05:29:50;;;;;;;19.17;10.97;;;-0.90;87.90;;;;;;5052142;28;20210;-66
2022/01/24 05:32:17;;;;;;;21.10;11.87;;;-0.80;88.10;;;;;;5053113;28;20579;-66
2022/01/24 05:34:45;;;;;;;22.00;11.83;;;-0.90;88.10;;;;;;5052605;28;20313;-66
2022/01/24 05:37:12;;;;;;;19.83;11.60;;;-0.90;88.30;;;;;;5052379;28;20212;-67
2022/01/24 05:39:39;;;;;;;21.43;12.10;;;-0.90;88.80;;;;;;5052961;28;20236;-66
2022/01/24 05:42:06;;;;;;;20.33;12.03;;;-0.90;88.90;;;;;;5052309;28;20209;-66
2022/01/24 05:44:33;;;;;;;20.20;12.37;;;-1.00;89.10;;;;;;5052211;28;20582;-66
2022/01/24 05:47:00;;;;;;;26.00;12.87;;;-0.90;89.60;;;;;;5051422;28;20237;-66
2022/01/24 05:49:27;;;;;;;21.63;11.90;;;-0.90;89.70;;;;;;5043095;28;20206;-67
2022/01/24 05:51:55;;;;;;;27.30;13.40;;;-0.30;90.10;;;;;;5051150;28;20288;-67
2022/01/24 05:54:22;;;;;;;31.13;14.20;;;-0.80;89.90;;;;;;5051000;28;20206;-66
2022/01/24 05:56:48;;;;;;;22.90;12.10;;;-0.80;90.00;;;;;;5052807;28;20312;-67
2022/01/24 05:59:15;;;;;;;21.77;11.83;;;-0.80;90.30;;;;;;5038250;28;20225;-66
2022/01/24 06:01:42;;;;;;;21.40;12.33;;;-0.80;89.90;;;;;;5050563;28;20229;-66
2022/01/24 06:04:10;;;;;;;23.90;12.47;;;-0.80;90.00;;;;;;5052164;28;20280;-66
2022/01/24 06:06:37;;;;;;;24.10;12.20;;;-0.80;90.00;;;;;;5052438;28;20224;-67
2022/01/24 06:09:05;;;;;;;26.50;12.83;;;-0.80;90.00;;;;;;5052884;28;20654;-67
2022/01/24 06:11:32;;;;;;;24.17;12.20;;;-0.80;90.00;;;;;;5052744;28;20214;-66
2022/01/24 06:13:59;;;;;;;26.70;14.10;;;-0.80;90.00;;;;;;5052304;28;20216;-66
2022/01/24 06:16:26;;;;;;;27.67;13.30;;;-0.80;90.20;;;;;;5052173;28;20727;-68
2022/01/24 06:18:52;;;;;;;25.47;12.97;;;-0.80;90.20;;;;;;5052924;28;20224;-67
2022/01/24 06:21:19;;;;;;;23.43;12.47;;;-0.90;90.30;;;;;;5051989;28;20237;-66
2022/01/24 06:23:46;;;;;;;22.93;12.37;;;-0.90;90.40;;;;;;5052325;28;20277;-67
2022/01/24 06:26:15;;;;;;;28.47;12.70;;;-0.90;90.50;;;;;;5051684;28;20202;-67
2022/01/24 06:28:42;;;;;;;34.27;13.67;;;-0.90;90.50;;;;;;5051892;28;20216;-66
2022/01/24 06:31:09;;;;;;;27.97;13.03;;;-0.80;90.60;;;;;;5052242;28;20202;-66
2022/01/24 06:33:36;;;;;;;26.57;12.63;;;-0.80;90.60;;;;;;5052053;28;20202;-66
2022/01/24 06:36:03;;;;;;;23.93;13.03;;;-0.80;90.60;;;;;;5043418;28;20639;-66
2022/01/24 06:38:30;;;;;;;26.07;13.13;;;-0.80;90.80;;;;;;5052400;28;20212;-67
2022/01/24 06:40:57;;;;;;;25.80;12.20;;;-0.80;90.90;;;;;;5051217;28;20228;-66
2022/01/24 06:43:25;;;;;;;30.20;13.47;;;-0.80;91.00;;;;;;5051272;28;20205;-67
2022/01/24 06:45:52;;;;;;;24.40;12.77;;;-0.80;91.00;;;;;;5051711;28;20214;-67
2022/01/24 06:48:19;;;;;;;28.27;13.83;;;-0.80;91.10;;;;;;5051136;28;20214;-66
2022/01/24 06:50:46;;;;;;;23.77;12.33;;;-0.70;91.30;;;;;;5042978;28;20210;-66
2022/01/24 06:53:12;;;;;;;25.57;13.67;;;-0.70;91.40;;;;;;5051505;28;20206;-67
2022/01/24 06:55:40;;;;;;;23.80;11.67;;;-0.70;91.30;;;;;;5051108;28;20491;-67
2022/01/24 06:58:07;;;;;;;22.50;12.10;;;-0.60;91.30;;;;;;5043117;28;20222;-67
2022/01/24 07:00:35;;;;;;;29.17;13.70;;;-0.60;91.30;;;;;;5051482;28;20707;-67
2022/01/24 07:03:02;;;;;;;24.83;12.70;;;-0.60;91.70;;;;;;5045017;28;20242;-68
2022/01/24 07:05:30;;;;;;;22.27;12.27;;;-0.60;91.30;;;;;;5046315;28;20206;-66
2022/01/24 07:07:59;;;;;;;23.67;11.90;;;-0.50;91.30;;;;;;5051373;28;20453;-67
2022/01/24 07:10:27;;;;;;;24.10;11.47;;;-0.50;91.30;;;;;;5052403;28;20209;-67
2022/01/24 07:12:54;;;;;;;29.77;12.33;;;-0.50;91.30;;;;;;5051354;28;20616;-67
2022/01/24 07:15:28;;;;;;;25.10;11.67;;;-0.50;91.20;;;;;;5050906;28;20215;-67
2022/01/24 07:18:16;;;;;;;24.93;12.67;;;-0.60;91.30;;;;;;5051551;28;20670;-67
2022/01/24 07:20:43;;;;;;;23.60;12.50;;;-0.60;91.50;;;;;;5050179;28;20212;-66
2022/01/24 07:23:10;;;;;;;24.00;12.20;;;-0.60;91.70;;;;;;5050689;28;20216;-68
2022/01/24 07:25:36;;;;;;;29.90;13.03;;;-0.50;92.00;;;;;;5051223;28;20515;-66
2022/01/24 07:28:04;;;;;;;21.00;12.23;;;-0.50;91.60;;;;;;5050246;28;20300;-67
2022/01/24 07:30:31;;;;;;;33.87;12.63;;;-0.50;91.60;;;;;;5050275;28;20206;-70
2022/01/24 07:32:59;;;;;;;28.87;12.90;;;-0.50;91.60;;;;;;5050593;28;20208;-70
2022/01/24 07:35:26;;;;;;;25.17;13.47;;;-0.50;91.80;;;;;;5047348;28;20205;-70
2022/01/24 07:37:53;;;;;;;30.17;13.90;;;-0.50;91.80;;;;;;5047248;28;20580;-69
2022/01/24 07:40:21;;;;;;;24.53;14.30;;;-0.60;91.80;;;;;;5049251;28;20271;-72
2022/01/24 07:42:57;;;;;;;29.60;14.07;;;-0.50;92.00;;;;;;5050264;28;20206;-67
2022/01/24 07:45:26;;;;;;;28.13;14.27;;;-0.50;92.20;;;;;;5051607;28;20201;-69
2022/01/24 07:47:53;;;;;;;28.00;14.17;;;-0.40;92.20;;;;;;5050817;28;20313;-68
2022/01/24 07:50:25;;;;;;;28.30;15.17;;;-0.40;92.20;;;;;;5050470;28;20735;-69
2022/01/24 07:52:53;;;;;;;27.43;14.40;;;-0.40;92.30;;;;;;5051208;28;20205;-67
2022/01/24 07:55:19;;;;;;;31.27;14.27;;;-0.40;92.40;;;;;;5051042;28;20272;-67
2022/01/24 07:57:46;;;;;;;25.43;14.83;;;0.70;93.10;;;;;;5052470;28;20222;-68
2022/01/24 08:00:14;;;;;;;28.93;14.63;;;-0.40;92.60;;;;;;5049518;28;20324;-67
2022/01/24 08:02:42;;;;;;;30.40;14.27;;;-0.30;92.70;;;;;;5037183;28;20895;-67
2022/01/24 08:05:10;;;;;;;28.83;15.07;;;-0.30;92.70;;;;;;5050492;28;20202;-68
2022/01/24 08:07:39;;;;;;;33.23;15.77;;;-0.30;92.50;;;;;;5050100;28;20213;-69
2022/01/24 08:10:09;;;;;;;30.30;15.17;;;-0.30;92.30;;;;;;5050633;28;20198;-68
2022/01/24 08:12:36;;;;;;;33.47;16.10;;;-0.30;92.50;;;;;;5050369;28;20942;-67
2022/01/24 08:15:03;;;;;;;29.20;15.90;;;-0.30;92.50;;;;;;5049699;28;20229;-67
2022/01/24 08:17:30;;;;;;;30.87;15.17;;;-0.30;92.50;;;;;;5049668;28;20214;-68
2022/01/24 08:19:57;;;;;;;32.37;15.90;;;-0.30;92.70;;;;;;5047066;28;20690;-68
2022/01/24 08:22:24;;;;;;;29.37;15.70;;;-0.30;92.90;;;;;;5047194;28;20206;-69
2022/01/24 08:24:53;;;;;;;27.67;15.00;;;-0.30;93.10;;;;;;5054336;28;20202;-69
2022/01/24 08:27:20;;;;;;;30.53;15.73;;;-0.30;93.00;;;;;;5050853;28;20213;-69
2022/01/24 08:29:48;;;;;;;29.03;14.30;;;-0.30;93.00;;;;;;5052227;28;20226;-69
2022/01/24 08:32:15;;;;;;;32.13;15.70;;;-0.30;93.20;;;;;;5045179;28;20209;-69
2022/01/24 08:34:42;;;;;;;31.13;16.10;;;-0.30;93.50;;;;;;5052713;28;20202;-69
2022/01/24 08:37:10;;;;;;;31.97;16.13;;;-0.30;93.70;;;;;;5051238;28;20649;-68
2022/01/24 08:39:37;;;;;;;34.37;15.87;;;-0.30;93.70;;;;;;5052928;28;20217;-67
2022/01/24 08:42:14;;;;;;;30.53;15.53;;;-0.20;93.80;;;;;;5052263;28;20214;-69
2022/01/24 08:47:28;;;;;;;34.50;15.73;;;-0.20;93.90;;;;;;5052892;28;20209;-69
2022/01/24 08:49:55;;;;;;;28.53;14.27;;;-0.20;93.80;;;;;;5053488;28;20210;-69
2022/01/24 08:52:22;;;;;;;32.80;15.73;;;-0.20;94.00;;;;;;5050826;28;20198;-69
2022/01/24 08:54:49;;;;;;;27.90;15.13;;;-0.20;94.10;;;;;;5054477;28;20233;-70
2022/01/24 08:57:21;;;;;;;28.73;15.07;;;-0.20;94.30;;;;;;5053599;28;20309;-69
2022/01/24 08:59:49;;;;;;;27.33;14.60;;;-0.20;94.40;;;;;;5052414;28;20216;-69
2022/01/24 09:02:16;;;;;;;28.90;14.33;;;-0.10;94.70;;;;;;5044894;28;20252;-70
2022/01/24 09:04:43;;;;;;;33.63;15.40;;;-0.10;94.70;;;;;;5048822;28;20583;-70
2022/01/24 09:07:10;;;;;;;31.27;15.23;;;0.00;94.50;;;;;;5052423;28;20293;-69
2022/01/24 09:09:38;;;;;;;26.40;14.70;;;0.00;94.60;;;;;;5053516;28;20205;-72
2022/01/24 09:12:11;;;;;;;29.47;14.17;;;0.10;94.50;;;;;;5052331;28;20233;-69
2022/01/24 09:14:40;;;;;;;29.53;14.00;;;0.10;94.50;;;;;;5051217;28;20267;-69
2022/01/24 09:17:07;;;;;;;26.63;14.80;;;0.10;94.50;;;;;;5045818;28;20207;-69
2022/01/24 09:19:34;;;;;;;27.40;15.07;;;0.10;94.60;;;;;;5050780;28;20694;-69
2022/01/24 09:22:01;;;;;;;27.03;14.87;;;0.20;94.60;;;;;;5051601;28;20218;-68
2022/01/24 09:24:28;;;;;;;25.70;15.20;;;0.20;94.60;;;;;;5052592;28;20292;-70
2022/01/24 09:26:55;;;;;;;31.13;15.17;;;0.20;94.40;;;;;;5048331;28;20201;-69
2022/01/24 09:29:21;;;;;;;29.10;14.43;;;0.20;94.30;;;;;;5039909;28;20567;-69
2022/01/24 09:31:50;;;;;;;32.30;14.60;;;0.20;94.30;;;;;;5043197;28;20626;-68
2022/01/24 09:34:17;;;;;;;31.77;15.43;;;0.10;94.30;;;;;;5047386;28;20214;-70
2022/01/24 09:36:44;;;;;;;27.60;15.67;;;0.10;94.50;;;;;;5052121;28;20206;-70
2022/01/24 09:39:12;;;;;;;32.57;14.97;;;0.10;94.80;;;;;;5045137;28;20336;-71
2022/01/24 09:41:40;;;;;;;32.40;14.10;;;0.20;94.90;;;;;;5052559;28;20636;-70
2022/01/24 09:44:07;;;;;;;31.17;15.43;;;0.20;94.80;;;;;;5048836;28;20211;-71
2022/01/24 09:46:35;;;;;;;27.70;14.83;;;0.30;95.00;;;;;;5047584;28;20209;-71
2022/01/24 09:49:04;;;;;;;29.27;15.93;;;0.30;95.00;;;;;;5052043;28;20209;-69
2022/01/24 09:51:31;;;;;;;25.07;14.47;;;0.40;95.00;;;;;;5052524;28;20210;-70
2022/01/24 09:53:58;;;;;;;30.97;15.97;;;0.50;94.70;;;;;;5051622;28;20201;-69
2022/01/24 09:56:25;;;;;;;27.73;15.33;;;0.50;94.50;;;;;;5052548;28;20639;-69
2022/01/24 09:58:52;;;;;;;32.20;16.90;;;0.60;94.50;;;;;;5050571;28;20217;-70
2022/01/24 10:01:19;;;;;;;30.67;16.67;;;0.70;94.70;;;;;;5048772;28;20304;-72
2022/01/24 10:04:06;;;;;;;31.60;15.90;;;0.70;94.40;;;;;;5047520;28;20639;-71
2022/01/24 10:07:12;;;;;;;30.83;15.80;;;0.80;94.30;;;;;;5048498;28;20214;-70
2022/01/24 10:09:42;;;;;;;28.27;15.37;;;0.80;94.10;;;;;;5047899;28;20197;-70
2022/01/24 10:12:18;;;;;;;30.17;15.53;;;0.90;94.20;;;;;;5047102;28;20226;-71
2022/01/24 10:17:33;;;;;;;32.07;16.37;;;0.90;93.90;;;;;;5049839;28;20209;-69
2022/01/24 10:20:18;;;;;;;31.30;15.67;;;0.90;93.80;;;;;;5050907;28;20372;-70
2022/01/24 10:23:01;;;;;;;31.13;16.73;;;0.90;93.70;;;;;;5050911;28;20208;-69
2022/01/24 10:25:28;;;;;;;37.95;18.60;;;0.90;93.90;;;;;;5045601;28;20446;-70
2022/01/24 10:28:01;;;;;;;35.08;20.75;;;0.90;94.10;;;;;;5045558;28;20507;-69
2022/01/24 10:30:29;;;;;;;31.40;17.23;;;0.90;94.10;;;;;;5048690;28;20198;-69
2022/01/24 10:32:56;;;;;;;31.40;16.50;;;0.90;94.10;;;;;;5045276;28;20567;-70
2022/01/24 10:35:33;;;;;;;35.47;17.30;;;1.00;93.90;;;;;;5040425;28;20909;-69
2022/01/24 10:38:30;;;;;;;33.70;15.90;;;1.00;93.80;;;;;;5046908;28;20667;-70
2022/01/24 10:41:10;;;;;;;32.80;15.60;;;1.10;93.70;;;;;;5043448;28;20214;-70
2022/01/24 10:43:38;;;;;;;29.53;15.83;;;1.10;93.70;;;;;;5048659;28;20284;-69
2022/01/24 10:46:06;;;;;;;30.30;15.93;;;1.20;93.70;;;;;;5049307;28;20206;-70
2022/01/24 10:48:35;;;;;;;34.17;16.13;;;1.30;93.40;;;;;;5048709;28;20470;-72
2022/01/24 10:51:10;;;;;;;34.63;18.95;;;1.40;93.50;;;;;;5043291;28;20454;-70
2022/01/24 10:53:40;;;;;;;33.73;16.37;;;1.50;93.40;;;;;;5041954;28;20577;-69
2022/01/24 10:56:27;;;;;;;27.83;14.93;;;1.60;93.10;;;;;;5049758;28;20812;-71
2022/01/24 10:58:54;;;;;;;33.80;17.42;;;1.70;92.70;;;;;;5047564;28;20455;-70
2022/01/24 11:01:27;;;;;;;27.90;14.97;;;1.70;92.60;;;;;;5049409;28;20233;-71
2022/01/24 11:04:03;;;;;;;25.77;15.23;;;1.70;92.20;;;;;;5046370;28;20206;-70
2022/01/24 11:06:35;;;;;;;23.20;13.13;;;1.70;92.20;;;;;;5048040;28;20292;-71
2022/01/24 11:09:18;;;;;;;27.47;14.83;;;1.80;92.10;;;;;;5048378;28;20715;-71
2022/01/24 11:11:46;;;;;;;28.07;13.53;;;1.80;92.00;;;;;;5045280;28;20241;-70
2022/01/24 11:14:16;;;;;;;25.20;14.10;;;1.80;91.90;;;;;;5049323;28;20281;-70
2022/01/24 11:16:44;;;;;;;26.37;13.70;;;1.90;92.10;;;;;;5049739;28;20553;-71
2022/01/24 11:19:16;;;;;;;24.37;13.43;;;1.90;92.10;;;;;;5049950;28;20220;-71
2022/01/24 11:21:46;;;;;;;28.80;14.80;;;2.00;92.10;;;;;;5050002;28;20313;-70
2022/01/24 11:24:17;;;;;;;32.40;14.60;;;2.00;91.90;;;;;;5047589;28;20573;-73
2022/01/24 11:26:45;;;;;;;30.40;14.33;;;2.00;91.60;;;;;;5048188;28;20267;-69
2022/01/24 11:29:13;;;;;;;30.13;14.10;;;2.00;91.60;;;;;;5044900;28;20281;-73
2022/01/24 11:31:44;;;;;;;25.27;13.53;;;2.00;91.30;;;;;;5044652;28;20576;-71
2022/01/24 11:34:19;;;;;;;23.90;12.90;;;2.00;91.40;;;;;;5050721;28;20198;-68
2022/01/24 11:36:48;;;;;;;24.70;13.90;;;2.10;91.40;;;;;;5049053;28;20204;-68
2022/01/24 11:39:22;;;;;;;21.23;12.83;;;2.10;91.30;;;;;;5049637;28;20205;-69
2022/01/24 11:41:49;;;;;;;30.50;14.63;;;2.10;91.30;;;;;;5048057;28;20718;-69
2022/01/24 11:44:19;;;;;;;24.67;13.10;;;2.10;91.20;;;;;;5044488;28;20593;-73
2022/01/24 11:46:48;;;;;;;24.50;13.80;;;2.30;91.60;;;;;;5050044;28;20240;-69
2022/01/24 11:49:17;;;;;;;28.90;13.60;;;2.30;91.30;;;;;;5047892;28;20206;-68
2022/01/24 11:51:46;;;;;;;29.03;13.50;;;2.40;91.20;;;;;;5039453;28;20206;-68
2022/01/24 11:54:44;;;;;;;26.63;13.60;;;2.40;90.90;;;;;;5046669;28;20738;-68
2022/01/24 11:57:34;;;;;;;23.33;12.50;;;2.30;90.80;;;;;;5051116;28;20230;-68
2022/01/24 12:00:37;;;;;;;21.17;12.57;;;2.40;91.20;;;;;;5047182;28;20221;-69
2022/01/24 12:03:16;;;;;;;24.17;13.30;;;2.30;91.00;;;;;;4975833;28;20228;-71
2022/01/24 12:05:44;;;;;;;22.47;12.87;;;2.30;91.00;;;;;;5040072;28;20241;-70
2022/01/24 12:08:13;;;;;;;25.23;13.40;;;2.40;91.00;;;;;;5051448;28;20221;-71
2022/01/24 12:10:44;;;;;;;28.10;12.83;;;2.40;91.10;;;;;;5047963;28;20294;-71
2022/01/24 12:13:18;;;;;;;26.80;13.27;;;2.40;91.00;;;;;;5048947;28;20244;-69
2022/01/24 12:16:03;;;;;;;27.80;13.60;;;2.50;91.10;;;;;;5053343;28;20255;-70
2022/01/24 12:19:02;;;;;;;22.87;12.20;;;2.50;91.10;;;;;;5047350;28;20282;-70
2022/01/24 12:21:31;;;;;;;21.67;12.20;;;2.50;91.20;;;;;;5042917;28;20250;-70
2022/01/24 12:24:01;;;;;;;25.67;12.57;;;2.40;91.10;;;;;;5052358;28;20327;-71
2022/01/24 12:26:32;;;;;;;25.70;14.13;;;2.50;91.20;;;;;;5051869;28;20206;-72
2022/01/24 12:29:03;;;;;;;29.57;13.97;;;2.50;91.30;;;;;;5043652;28;20208;-70
2022/01/24 12:31:37;;;;;;;23.97;12.90;;;2.50;91.10;;;;;;5049611;28;20214;-69
2022/01/24 12:34:14;;;;;;;23.57;13.10;;;2.50;91.00;;;;;;5050615;28;20317;-70
2022/01/24 12:37:05;;;;;;;22.93;12.30;;;2.50;91.00;;;;;;5049537;28;20202;-71
2022/01/24 12:39:43;;;;;;;23.03;12.33;;;2.50;91.30;;;;;;5052278;28;20270;-73
2022/01/24 12:42:18;;;;;;;26.77;13.57;;;2.50;91.30;;;;;;5053916;28;20214;-72
2022/01/24 12:47:32;;;;;;;26.63;13.60;;;2.50;91.50;;;;;;5051643;28;20281;-71
2022/01/24 12:49:59;;;;;;;23.93;12.13;;;2.50;91.70;;;;;;5039435;28;20206;-73
2022/01/24 12:52:29;;;;;;;23.77;12.53;;;2.60;91.80;;;;;;5049059;28;20193;-72
2022/01/24 12:54:58;;;;;;;24.93;12.07;;;2.60;91.70;;;;;;5048964;28;20225;-71
2022/01/24 12:57:32;;;;;;;27.57;13.13;;;2.50;91.70;;;;;;5054576;28;20250;-71
2022/01/24 13:00:01;;;;;;;25.17;11.87;;;2.50;91.70;;;;;;5047803;28;20297;-71
2022/01/24 13:02:31;;;;;;;24.77;13.07;;;2.50;91.70;;;;;;5036886;28;20214;-71
2022/01/24 13:05:02;;;;;;;23.40;12.20;;;2.40;91.90;;;;;;5049137;28;20210;-72
2022/01/24 13:07:31;;;;;;;26.27;13.13;;;2.00;91.70;;;;;;5045634;28;20293;-69
2022/01/24 13:10:13;;;;;;;26.10;12.57;;;2.30;92.10;;;;;;5041743;28;20201;-76
2022/01/24 13:12:43;;;;;;;25.17;12.60;;;2.30;92.30;;;;;;5054286;28;20516;-74
2022/01/24 13:15:23;;;;;;;19.33;11.83;;;2.20;92.30;;;;;;5052952;28;20288;-68
2022/01/24 13:23:25;;;;;;;22.57;12.27;;;3.50;93.60;;;;;;5040956;28;20213;-72
2022/01/24 13:25:52;;;;;;;22.13;12.73;;;2.20;93.20;;;;;;5053070;28;20210;-71
2022/01/24 13:28:23;;;;;;;23.90;13.00;;;2.20;93.10;;;;;;5055104;28;20201;-72
2022/01/24 13:30:57;;;;;;;22.87;12.13;;;2.20;93.20;;;;;;5055544;28;20248;-72
2022/01/24 13:33:25;;;;;;;23.20;11.73;;;2.20;93.10;;;;;;5053295;28;20750;-73
2022/01/24 13:35:54;;;;;;;28.10;13.30;;;2.10;93.30;;;;;;5046306;28;20217;-73
2022/01/24 13:38:25;;;;;;;27.40;12.33;;;2.20;93.40;;;;;;5052914;28;20232;-73
2022/01/24 13:40:54;;;;;;;22.57;12.20;;;2.10;93.40;;;;;;5043532;28;20202;-72
2022/01/24 13:43:34;;;;;;;24.50;12.37;;;2.10;93.70;;;;;;5050758;28;20253;-71
2022/01/24 13:46:04;;;;;;;21.00;12.13;;;2.00;93.50;;;;;;5053933;28;20217;-71
2022/01/24 13:48:44;;;;;;;24.13;13.13;;;2.10;93.80;;;;;;5052753;28;20209;-72
2022/01/24 13:51:13;;;;;;;25.53;11.67;;;2.00;93.90;;;;;;5044038;28;20620;-71
2022/01/24 13:53:42;;;;;;;26.33;14.20;;;2.00;93.90;;;;;;5047523;28;20213;-74
2022/01/24 13:56:38;;;;;;;26.03;12.40;;;2.00;94.00;;;;;;5053846;28;20845;-73
2022/01/24 13:59:11;;;;;;;24.33;11.87;;;1.90;94.10;;;;;;5049124;28;20206;-72
2022/01/24 14:01:39;;;;;;;22.87;13.10;;;1.90;94.30;;;;;;5054193;28;20220;-72
2022/01/24 14:04:08;;;;;;;23.80;13.47;;;1.90;94.50;;;;;;5044478;28;20209;-72
2022/01/24 14:06:37;;;;;;;25.47;13.23;;;1.80;94.60;;;;;;5051474;28;20220;-73
2022/01/24 14:09:07;;;;;;;28.33;14.47;;;1.80;94.60;;;;;;5044174;28;20563;-72